Huvudsida
METAR-TAF:

METAR-TAF

Flygplatser :

Port of Spain, Trinidad, Trinidad och Tobago

latitud: 10-37N, longitud: 061-21W, höjd: 12 m

Aktuellt väderrapport

Denna rapport gjordes för 26 minuter sedan, klockan 23:00 UTC
Vind 7 kt från ost/sydost
Temperatur 27°C
Fuktighet 70%
Tryck 1013 hPa
Sikt 10 km eller mer
Spridda moln på en höjd av 1800 ft
Brutna moln på en höjd av 3800 ft

METAR: TTPP 222300Z 12007KT 9999 SCT018 BKN038 27/21 Q1013 NOSIG

Tid: 19:26 (23:26 UTC)

Väderprognos

Denna rapport gjordes för 7 timmar och 26 minuter sedan, klockan 16:00 UTC
Prognos gäller från 22 kl. 18 UTC till 23 kl. 18 UTC
Vind 10 kt från ost
Sikt 10 km eller mer
Få moln på en höjd av 2000 ft
Temporärt
från 22 kl. 18 UTC till 22 kl. 22 UTC
Spridda moln på en höjd av 1500 ft
Spridda moln på en höjd av 3800 ft
skurar i närheten

TAF: TTPP 221600Z 2218/2318 10010KT 9999 FEW020 TEMPO 2218/2222 VCSH SCT015 SCT038

Aktuella väderrapporter och prognoser från 4000 flygplatser (METAR- och TAF-rapporter).

De tillgängliga stationerna syns som gula och röda prickar på kartan.

För musen över prickarna för att se namnen på stationerna.

Klicka sedan för att få väderrapporter och prognoser.

För att ändra kartan: Klicka på de gröna knapparna med ett svart kors på för att zooma in; den gröna knappen med ett streck på för att zooma ut; eller på de gröna pilarna för angränsande kartor.


METAR-TAF: